Time;durP1;ratioP1;P1;durP2;ratioP2;P2;SDS_P1;SDS_P2;PMS_P1;PMS_P2;Temp;Humidity;BMP_temperature;BMP_pressure;BME280_temperature;BME280_humidity;BME280_pressure;Samples;Min_cycle;Max_cycle;Signal;HPM_P1;HPM_P2
2021/07/25 00:01:12;;;;;;;17.00;9.52;;;18.90;99.90;;;18.51;100.00;100299.47;4150486;28;20029;-74
2021/07/25 00:03:13;;;;;;;21.77;10.57;;;18.90;99.90;;;18.46;100.00;100296.56;4157763;28;20512;-75
2021/07/25 00:05:14;;;;;;;21.20;10.48;;;18.90;99.90;;;18.47;100.00;100297.38;4167244;28;20017;-75
2021/07/25 00:07:15;;;;;;;14.32;9.68;;;18.80;99.90;;;18.51;100.00;100298.63;4150709;28;20033;-75
2021/07/25 00:09:16;;;;;;;16.38;9.70;;;18.90;99.90;;;18.51;100.00;100294.13;4167941;28;20060;-75
2021/07/25 00:11:18;;;;;;;15.20;8.80;;;18.80;99.90;;;18.44;100.00;100298.66;4166799;28;20032;-74
2021/07/25 00:13:19;;;;;;;18.02;10.82;;;18.80;99.90;;;18.48;100.00;100307.88;4167042;28;20030;-75
2021/07/25 00:15:20;;;;;;;16.50;10.88;;;18.80;99.90;;;18.57;100.00;100305.78;4168234;28;20032;-75
2021/07/25 00:17:21;;;;;;;14.48;9.68;;;18.80;99.90;;;18.54;100.00;100304.38;4168379;28;20021;-75
2021/07/25 00:19:22;;;;;;;16.15;8.93;;;18.80;99.90;;;18.51;100.00;100304.81;4166989;28;20496;-75
2021/07/25 00:21:24;;;;;;;14.50;9.73;;;18.80;99.90;;;18.40;100.00;100302.00;4183815;28;20416;-75
2021/07/25 00:23:26;;;;;;;21.42;10.55;;;18.70;99.90;;;18.43;100.00;100301.56;4166945;28;20036;-75
2021/07/25 00:25:28;;;;;;;23.15;11.15;;;18.70;99.90;;;18.46;100.00;100303.75;4150577;28;20108;-75
2021/07/25 00:27:29;;;;;;;15.88;9.52;;;18.70;99.90;;;18.35;100.00;100291.94;4150856;28;20037;-75
2021/07/25 00:29:31;;;;;;;15.65;9.68;;;18.70;99.90;;;18.39;100.00;100287.81;4167030;28;20033;-75
2021/07/25 00:31:33;;;;;;;18.10;10.07;;;18.60;99.90;;;18.47;100.00;100302.72;4166594;28;20033;-75
2021/07/25 00:33:35;;;;;;;15.13;9.80;;;18.70;99.90;;;18.47;100.00;100292.06;4167008;28;20038;-75
2021/07/25 00:35:37;;;;;;;14.35;8.55;;;18.70;99.90;;;18.40;100.00;100307.31;4183536;28;20041;-75
2021/07/25 00:37:42;;;;;;;14.85;9.73;;;18.60;99.90;;;18.40;100.00;100297.44;4167008;28;20508;-75
2021/07/25 00:39:43;;;;;;;15.02;9.60;;;18.60;99.90;;;18.39;100.00;100309.19;4166756;28;20083;-75
2021/07/25 00:41:44;;;;;;;13.63;9.15;;;18.60;99.90;;;18.33;100.00;100299.38;4168133;28;20030;-75
2021/07/25 00:43:46;;;;;;;14.23;9.13;;;18.60;99.90;;;18.30;100.00;100305.13;4167830;28;20048;-75
2021/07/25 00:45:47;;;;;;;15.68;8.77;;;18.50;99.90;;;18.30;100.00;100312.31;4166538;28;20472;-75
2021/07/25 00:47:48;;;;;;;15.48;9.32;;;18.40;99.90;;;18.26;100.00;100309.25;4166651;28;20029;-75
2021/07/25 00:49:49;;;;;;;16.55;9.82;;;18.40;99.90;;;18.20;100.00;100302.13;4183192;28;20021;-75
2021/07/25 00:51:50;;;;;;;20.42;9.77;;;18.40;99.90;;;18.18;100.00;100305.00;4166732;28;20022;-75
2021/07/25 00:53:52;;;;;;;12.15;8.60;;;18.30;99.90;;;18.13;100.00;100304.00;4178767;28;20485;-75
2021/07/25 00:55:54;;;;;;;13.90;8.65;;;18.30;99.90;;;18.08;100.00;100304.66;4153195;28;20034;-75
2021/07/25 00:57:58;;;;;;;16.67;9.95;;;18.30;99.90;;;18.10;100.00;100296.41;4169805;28;20033;-74
2021/07/25 00:59:58;;;;;;;;;;;18.20;99.90;;;18.14;100.00;100310.97;4170038;28;20060;-75
2021/07/25 01:01:59;;;;;;;14.20;9.00;;;18.20;99.90;;;18.10;100.00;100307.09;4169478;28;19909;-75
2021/07/25 01:04:27;;;;;;;15.35;10.38;;;18.20;99.90;;;18.17;100.00;100313.22;4170651;28;20040;-75
2021/07/25 01:07:05;;;;;;;12.32;8.65;;;18.20;99.90;;;18.17;100.00;100313.22;4170845;28;20561;-75
2021/07/25 01:09:35;;;;;;;15.85;8.73;;;18.20;99.90;;;18.06;100.00;100304.06;4169251;28;20177;-75
2021/07/25 01:12:03;;;;;;;12.48;8.02;;;18.10;99.90;;;17.97;100.00;100312.53;4169786;28;20064;-75
2021/07/25 01:14:05;;;;;;;12.93;8.10;;;18.10;99.90;;;17.81;100.00;100308.50;4170524;28;20083;-75
2021/07/25 01:16:07;;;;;;;15.43;9.02;;;18.00;99.90;;;17.93;100.00;100311.31;4152883;28;20112;-75
2021/07/25 01:18:08;;;;;;;15.40;9.25;;;18.00;99.90;;;17.89;100.00;100310.91;4170585;28;20068;-75
2021/07/25 01:20:12;;;;;;;13.45;8.15;;;18.00;99.90;;;17.92;100.00;100309.69;4170578;28;20059;-75
2021/07/25 01:22:13;;;;;;;13.50;7.72;;;18.00;99.90;;;17.80;100.00;100312.19;4169467;28;20543;-75
2021/07/25 01:24:14;;;;;;;17.35;9.35;;;17.90;99.90;;;17.75;100.00;100308.53;4169311;28;20025;-75
2021/07/25 01:26:26;;;;;;;14.50;7.82;;;17.90;99.90;;;17.69;100.00;100304.88;4169337;28;20052;-75
2021/07/25 01:28:36;;;;;;;14.50;8.07;;;17.90;99.90;;;17.72;100.00;100308.97;4166788;28;20116;-75
2021/07/25 01:30:50;;;;;;;12.05;7.85;;;17.90;99.90;;;17.63;100.00;100306.56;4169017;28;20048;-75
2021/07/25 01:32:59;;;;;;;12.60;7.30;;;17.80;99.90;;;17.60;100.00;100311.47;4170506;28;20033;-75
2021/07/25 01:35:03;;;;;;;11.43;7.15;;;17.70;99.90;;;17.66;100.00;100310.63;4170246;28;20025;-75
2021/07/25 01:37:04;;;;;;;14.45;6.93;;;17.80;99.90;;;17.64;100.00;100310.03;4169114;28;20065;-75
2021/07/25 01:39:05;;;;;;;10.48;7.70;;;17.80;99.90;;;17.71;100.00;100318.03;4169086;28;20085;-75
2021/07/25 01:41:09;;;;;;;13.15;9.23;;;17.80;99.90;;;17.65;99.82;100312.47;4169369;28;20108;-75
2021/07/25 01:43:13;;;;;;;14.73;7.50;;;17.70;99.90;;;17.53;100.00;100305.34;4168976;28;20084;-75
2021/07/25 01:45:15;;;;;;;10.20;6.93;;;17.70;99.90;;;17.72;99.06;100314.31;4169132;28;20156;-75
2021/07/25 01:47:16;;;;;;;11.38;7.50;;;17.70;99.90;;;17.56;99.77;100308.41;4168842;28;20032;-75
2021/07/25 01:49:17;;;;;;;11.85;6.90;;;17.70;99.90;;;17.59;99.78;100309.88;4168965;28;20480;-75
2021/07/25 01:51:17;;;;;;;12.25;7.03;;;17.70;99.90;;;17.63;99.21;100319.88;4185444;28;20025;-75
2021/07/25 01:53:18;;;;;;;13.38;7.25;;;17.80;99.90;;;17.58;99.26;100309.03;4168963;28;20505;-75
2021/07/25 01:55:19;;;;;;;11.50;7.18;;;17.80;99.90;;;17.55;99.97;100309.47;4185348;28;20029;-75
2021/07/25 01:57:20;;;;;;;11.25;5.80;;;17.80;99.90;;;17.61;98.27;100313.97;4168768;28;20107;-74
2021/07/25 01:59:21;;;;;;;15.55;6.18;;;17.70;99.90;;;17.52;97.97;100307.19;4150859;28;20552;-75
2021/07/25 02:01:22;;;;;;;10.93;6.18;;;17.70;99.90;;;17.49;99.19;100320.13;4168784;28;20022;-75
2021/07/25 02:03:28;;;;;;;12.63;6.57;;;17.70;99.90;;;17.36;98.89;100314.81;4168569;28;20029;-75
2021/07/25 02:05:29;;;;;;;10.85;6.43;;;17.70;99.90;;;17.28;99.91;100315.88;4152279;28;20557;-75
2021/07/25 02:07:30;;;;;;;7.72;5.93;;;17.60;99.90;;;17.23;99.27;100320.22;4169015;28;20104;-75
2021/07/25 02:09:36;;;;;;;8.93;6.22;;;17.50;99.90;;;17.26;99.37;100311.81;4168909;28;20420;-74
2021/07/25 02:11:38;;;;;;;10.82;5.55;;;17.50;99.90;;;17.18;99.84;100312.84;4168677;28;20028;-75
2021/07/25 02:13:39;;;;;;;8.77;5.97;;;17.40;99.90;;;17.16;100.00;100312.22;4168553;28;20030;-75
2021/07/25 02:15:40;;;;;;;11.00;5.80;;;17.40;99.90;;;17.08;99.41;100307.94;4168252;28;20091;-75
2021/07/25 02:17:41;;;;;;;11.95;6.55;;;17.40;99.90;;;17.06;99.63;100303.84;4168352;28;20084;-75
2021/07/25 02:19:42;;;;;;;10.45;6.13;;;17.30;99.90;;;17.14;100.00;100308.97;4160862;28;20191;-75
2021/07/25 02:21:43;;;;;;;10.23;5.43;;;17.30;99.90;;;17.12;100.00;100309.16;4169598;28;20069;-75
2021/07/25 02:23:44;;;;;;;6.20;5.28;;;17.30;99.90;;;17.25;98.55;100316.31;4169354;28;20022;-75
2021/07/25 02:25:45;;;;;;;9.13;5.95;;;17.30;99.90;;;17.13;99.27;100305.47;4169583;28;20032;-75
2021/07/25 02:27:46;;;;;;;9.02;5.47;;;17.30;99.90;;;17.07;98.97;100308.16;4169597;28;20374;-75
2021/07/25 02:29:47;;;;;;;8.88;4.90;;;17.30;99.90;;;17.05;99.43;100304.88;4168268;28;20025;-74
2021/07/25 02:31:48;;;;;;;11.15;6.43;;;17.20;99.90;;;17.13;98.52;100321.47;4167872;28;20026;-75
2021/07/25 02:33:49;;;;;;;8.52;5.90;;;17.30;99.90;;;16.98;99.65;100312.88;4168521;28;20064;-75
2021/07/25 02:35:49;;;;;;;7.50;5.07;;;17.30;99.90;;;17.05;99.46;100307.56;4169373;28;20033;-75
2021/07/25 02:37:50;;;;;;;8.15;6.07;;;17.20;99.90;;;17.15;99.58;100313.25;4169233;28;20170;-75
2021/07/25 02:39:51;;;;;;;9.52;5.82;;;17.30;99.90;;;17.23;98.83;100314.88;4169154;28;20037;-75
2021/07/25 02:41:52;;;;;;;13.10;5.97;;;17.40;99.90;;;17.02;99.06;100303.44;4169398;28;20029;-75
2021/07/25 02:43:53;;;;;;;6.53;5.18;;;17.40;99.90;;;17.06;99.91;100310.00;4168972;28;20046;-75
2021/07/25 02:45:54;;;;;;;8.70;5.55;;;17.40;99.90;;;17.09;98.69;100306.09;4151512;28;20026;-75
2021/07/25 02:47:55;;;;;;;9.45;5.57;;;17.40;99.90;;;16.94;99.52;100308.16;4167835;28;20033;-75
2021/07/25 02:49:56;;;;;;;14.85;6.07;;;17.30;99.90;;;16.95;99.55;100317.81;4151574;28;20022;-75
2021/07/25 02:52:01;;;;;;;12.85;5.75;;;17.30;99.90;;;17.00;99.61;100304.66;4190687;28;20074;-75
2021/07/25 02:54:02;;;;;;;8.38;6.47;;;17.30;99.90;;;17.01;99.66;100308.97;4167939;28;20095;-75
2021/07/25 02:56:03;;;;;;;8.52;5.40;;;17.30;99.90;;;17.07;98.63;100305.47;4167846;28;20033;-75
2021/07/25 02:58:04;;;;;;;10.68;5.47;;;17.30;99.90;;;16.93;99.24;100291.38;4167605;28;20017;-75
2021/07/25 03:00:07;;;;;;;8.85;5.30;;;17.40;99.90;;;17.14;98.64;100312.44;4169017;28;20032;-75
2021/07/25 03:02:08;;;;;;;8.60;5.18;;;17.30;99.90;;;17.06;97.55;100303.84;4184199;28;20028;-75
2021/07/25 03:04:09;;;;;;;9.10;5.43;;;17.30;99.90;;;17.04;98.17;100304.06;4168891;28;20493;-74
2021/07/25 03:06:10;;;;;;;10.07;5.10;;;17.30;99.90;;;17.14;97.61;100316.97;4168670;28;20034;-75
2021/07/25 03:08:11;;;;;;;9.13;4.65;;;17.30;99.90;;;17.02;96.94;100300.75;4168935;28;20018;-75
2021/07/25 03:10:12;;;;;;;11.55;4.97;;;17.40;99.90;;;17.04;96.68;100298.72;4169030;28;20064;-75
2021/07/25 03:12:13;;;;;;;8.93;4.63;;;17.40;99.90;;;17.12;96.46;100311.00;4168733;28;20036;-75
2021/07/25 03:14:14;;;;;;;6.38;4.78;;;17.40;99.90;;;17.06;97.05;100303.84;4168760;28;20026;-75
2021/07/25 03:16:15;;;;;;;8.68;5.03;;;17.40;99.90;;;17.08;96.06;100301.81;4166587;28;20424;-75
2021/07/25 03:18:16;;;;;;;7.25;5.28;;;17.40;99.90;;;16.91;97.87;100313.91;4183979;28;20112;-74
2021/07/25 03:20:17;;;;;;;7.85;4.68;;;17.40;99.90;;;17.13;96.10;100320.66;4168649;28;20021;-75
2021/07/25 03:22:20;;;;;;;9.27;4.60;;;17.40;99.90;;;17.06;95.96;100303.84;4168799;28;20025;-75
2021/07/25 03:24:21;;;;;;;9.88;5.43;;;17.40;99.90;;;17.08;96.18;100317.78;4168884;28;20020;-75
2021/07/25 03:26:22;;;;;;;7.00;4.90;;;17.40;99.90;;;16.99;96.68;100313.72;4168613;28;20395;-75
2021/07/25 03:28:23;;;;;;;6.45;4.47;;;17.40;99.90;;;17.00;96.94;100315.31;4167299;28;20026;-75
2021/07/25 03:30:24;;;;;;;6.18;4.10;;;17.40;99.90;;;17.03;97.00;100302.41;4168344;28;20072;-75
2021/07/25 03:32:25;;;;;;;9.80;4.85;;;17.40;99.90;;;17.07;96.63;100298.31;4168633;28;20025;-75
2021/07/25 03:34:31;;;;;;;11.60;5.15;;;17.40;99.90;;;17.09;95.68;100306.09;4150972;28;20030;-75
2021/07/25 03:36:32;;;;;;;11.93;4.97;;;17.40;99.90;;;17.03;97.14;100315.75;4168400;28;20025;-75
2021/07/25 03:38:33;;;;;;;9.88;4.80;;;17.40;99.90;;;17.13;95.90;100328.63;4167299;28;20084;-75
2021/07/25 03:40:34;;;;;;;6.53;4.78;;;17.40;99.90;;;17.08;96.45;100317.78;4168509;28;20083;-75
2021/07/25 03:42:36;;;;;;;9.40;5.28;;;17.50;99.90;;;17.03;97.39;100325.56;4168441;28;20054;-75
2021/07/25 03:44:38;;;;;;;8.60;4.57;;;17.40;99.90;;;17.06;96.71;100325.97;4167222;28;20037;-75
2021/07/25 03:46:39;;;;;;;12.52;6.07;;;17.50;99.90;;;16.93;96.47;100322.53;4168309;28;20041;-74
2021/07/25 03:48:40;;;;;;;8.98;5.13;;;17.50;99.90;;;16.95;96.17;100310.63;4168510;28;20072;-75
2021/07/25 03:50:42;;;;;;;9.48;4.97;;;17.50;99.90;;;17.06;96.40;100325.97;4168460;28;20025;-75
2021/07/25 03:52:43;;;;;;;10.48;5.28;;;17.50;99.90;;;16.95;96.73;100317.81;4168350;28;20030;-75
2021/07/25 03:54:44;;;;;;;7.18;5.78;;;17.40;99.90;;;17.03;96.37;100337.06;4168528;28;20025;-75
2021/07/25 03:56:45;;;;;;;9.85;5.05;;;17.50;99.90;;;16.97;97.02;100327.22;4168460;28;20033;-75
2021/07/25 03:58:45;;;;;;;9.95;6.03;;;17.50;99.90;;;16.96;96.51;100335.44;4168332;28;20083;-75
2021/07/25 04:00:46;;;;;;;10.90;5.32;;;17.50;99.90;;;16.89;97.26;100340.78;4166789;28;20049;-75
2021/07/25 04:02:47;;;;;;;11.23;5.47;;;17.40;99.90;;;16.84;97.16;100334.44;4168436;28;20028;-74
2021/07/25 04:04:48;;;;;;;6.20;5.15;;;17.40;99.90;;;16.85;97.80;100336.03;4168458;28;20396;-75
2021/07/25 04:06:49;;;;;;;17.08;6.65;;;17.40;99.90;;;16.87;97.47;100332.19;4167410;28;20022;-75
2021/07/25 04:08:50;;;;;;;8.80;6.07;;;17.30;99.90;;;16.84;97.59;100323.78;4168206;28;20030;-75
2021/07/25 04:10:51;;;;;;;8.95;5.45;;;17.40;99.90;;;16.96;97.31;100330.94;4168363;28;20113;-75
2021/07/25 04:12:52;;;;;;;8.73;5.68;;;17.40;99.90;;;16.95;97.20;100339.13;4168575;28;20032;-75
2021/07/25 04:14:53;;;;;;;8.77;5.05;;;17.40;99.90;;;16.89;97.17;100330.13;4168500;28;20033;-75
2021/07/25 04:16:54;;;;;;;8.93;5.47;;;17.40;99.90;;;16.83;97.54;100335.44;4166992;28;20049;-75
2021/07/25 04:18:55;;;;;;;8.52;4.63;;;17.40;99.90;;;16.81;98.14;100330.34;4168109;28;20037;-75
2021/07/25 04:20:55;;;;;;;7.88;5.20;;;17.30;99.90;;;16.94;97.66;100338.28;4167110;28;20026;-75
2021/07/25 04:22:56;;;;;;;10.57;5.15;;;17.30;99.90;;;16.71;97.60;100324.59;4183593;28;20017;-75
2021/07/25 04:24:57;;;;;;;8.68;4.45;;;17.20;99.90;;;16.75;97.57;100322.34;4183319;28;20025;-75
2021/07/25 04:26:58;;;;;;;7.85;6.07;;;17.20;99.90;;;16.78;98.03;100337.91;4168742;28;20024;-74
2021/07/25 04:28:59;;;;;;;8.95;5.30;;;17.20;99.90;;;16.90;97.68;100339.75;4170397;28;20029;-75
2021/07/25 04:31:01;;;;;;;11.82;5.43;;;17.20;99.90;;;16.77;97.76;100353.06;4171197;28;20029;-75
2021/07/25 04:33:03;;;;;;;13.50;6.03;;;17.20;99.90;;;16.77;97.73;100341.59;4171413;28;20116;-75
2021/07/25 04:35:07;;;;;;;10.48;5.32;;;17.20;99.90;;;16.74;97.70;100344.66;4170171;28;20446;-74
2021/07/25 04:37:21;;;;;;;11.52;6.03;;;17.10;99.90;;;16.75;98.19;100348.97;4154028;28;20034;-75
2021/07/25 04:39:22;;;;;;;11.10;6.15;;;17.20;99.90;;;16.85;98.24;100354.69;4171576;28;20032;-75
2021/07/25 04:41:33;;;;;;;9.27;5.30;;;17.10;99.90;;;16.81;97.25;100346.31;4171175;28;20046;-74
2021/07/25 04:43:35;;;;;;;8.02;5.30;;;17.10;99.90;;;16.79;96.92;100345.69;4170080;28;20049;-75
2021/07/25 04:46:23;;;;;;;6.82;4.95;;;17.10;99.90;;;16.81;97.35;100356.16;4170817;28;20025;-75
2021/07/25 04:48:56;;;;;;;7.90;5.03;;;17.10;99.90;;;16.78;97.45;100351.22;4121321;28;20035;-75
2021/07/25 04:51:06;;;;;;;12.73;5.32;;;17.10;99.90;;;16.86;96.73;100353.69;4150760;28;20041;-75
2021/07/25 04:53:26;;;;;;;8.60;5.35;;;17.10;99.90;;;16.85;98.13;100365.34;4169841;28;20492;-75
2021/07/25 04:55:34;;;;;;;9.90;5.45;;;17.10;99.90;;;16.74;97.58;100342.00;4171204;28;20451;-75
2021/07/25 04:57:42;;;;;;;8.27;5.20;;;17.20;99.90;;;16.79;98.44;100371.50;4170995;28;20041;-75
2021/07/25 04:59:48;;;;;;;10.80;6.00;;;17.10;99.90;;;16.72;98.48;100360.88;4171183;28;20042;-75
2021/07/25 05:01:50;;;;;;;11.43;5.65;;;17.10;99.90;;;16.60;98.82;100343.88;4170899;28;20392;-75
2021/07/25 05:03:52;;;;;;;9.52;5.97;;;17.10;99.90;;;16.75;98.56;100364.97;4170893;28;20029;-75
2021/07/25 05:05:55;;;;;;;7.50;5.65;;;17.10;99.90;;;16.79;98.16;100359.00;4170753;28;20017;-75
2021/07/25 05:08:00;;;;;;;8.90;5.38;;;17.10;99.90;;;16.77;98.38;100373.56;4169732;28;20083;-74
2021/07/25 05:10:01;;;;;;;11.20;5.63;;;17.10;99.90;;;16.81;99.15;100386.28;4186257;28;20040;-75
2021/07/25 05:12:13;;;;;;;10.27;5.65;;;17.10;99.90;;;16.95;97.44;100387.09;4169701;28;20100;-75
2021/07/25 05:14:25;;;;;;;11.65;6.90;;;17.10;99.90;;;16.69;97.76;100379.94;4158504;28;20026;-75
2021/07/25 05:17:18;;;;;;;7.43;5.05;;;17.20;99.90;;;16.89;97.82;100387.91;4170430;28;20033;-75
2021/07/25 05:20:02;;;;;;;6.55;4.80;;;17.20;99.90;;;17.00;98.16;100389.94;4168309;28;20037;-74
2021/07/25 05:22:42;;;;;;;9.73;5.03;;;17.20;99.90;;;17.04;97.28;100386.66;4165387;28;20057;-75
2021/07/25 05:24:45;;;;;;;8.73;5.07;;;17.30;99.90;;;17.00;97.63;100384.63;4169537;28;20041;-75
2021/07/25 05:26:48;;;;;;;8.15;5.30;;;17.30;99.90;;;17.06;96.60;100394.44;4169344;28;20404;-75
2021/07/25 05:28:53;;;;;;;11.15;5.63;;;17.40;99.90;;;17.13;96.92;100392.59;4169520;28;20378;-75
2021/07/25 05:30:56;;;;;;;6.93;4.95;;;17.40;99.90;;;17.08;96.84;100395.88;4168983;28;20029;-75
2021/07/25 05:32:57;;;;;;;7.93;5.07;;;17.50;99.90;;;17.23;96.62;100406.34;4169540;28;20101;-75
2021/07/25 05:34:58;;;;;;;8.68;5.55;;;17.50;99.90;;;17.26;96.12;100384.59;4185840;28;20484;-75
2021/07/25 05:36:58;;;;;;;7.25;4.25;;;17.60;99.90;;;17.34;94.75;100402.22;4170540;28;20021;-75
2021/07/25 05:38:59;;;;;;;8.15;5.22;;;17.60;99.90;;;17.29;94.80;100394.84;4168301;28;20052;-75
2021/07/25 05:41:00;;;;;;;7.13;4.82;;;17.70;99.90;;;17.26;95.74;100399.78;4170290;28;20068;-75
2021/07/25 05:43:01;;;;;;;7.28;5.05;;;17.70;99.90;;;17.25;95.41;100398.94;4168806;28;20038;-75
2021/07/25 05:45:04;;;;;;;7.95;4.70;;;17.60;99.90;;;17.31;95.76;100391.97;4152687;28;20022;-74
2021/07/25 05:47:05;;;;;;;7.80;4.88;;;17.70;99.90;;;17.25;96.31;100398.94;4168948;28;20029;-75
2021/07/25 05:49:05;;;;;;;10.02;4.53;;;17.70;99.90;;;17.32;95.55;100393.63;4169266;28;20056;-75
2021/07/25 05:51:06;;;;;;;7.50;5.57;;;17.70;99.90;;;17.19;95.85;100396.28;4170080;28;20400;-75
2021/07/25 05:53:07;;;;;;;7.65;4.18;;;17.70;99.90;;;17.17;96.99;100399.19;4169052;28;20033;-75
2021/07/25 05:55:09;;;;;;;7.15;4.50;;;17.70;99.90;;;17.36;96.18;100410.81;4185509;28;20491;-75
2021/07/25 05:57:10;;;;;;;6.80;4.43;;;17.70;99.90;;;17.38;95.69;100398.09;4152413;28;20072;-75
2021/07/25 05:59:11;;;;;;;10.60;4.35;;;17.80;99.90;;;17.35;95.48;100407.31;4168724;28;20468;-75
2021/07/25 06:01:12;;;;;;;8.40;3.97;;;17.80;99.90;;;17.40;95.74;100396.03;4168659;28;20025;-74
2021/07/25 06:03:13;;;;;;;8.15;5.07;;;17.90;99.90;;;17.52;94.58;100410.38;4152571;28;20034;-75
2021/07/25 06:05:14;;;;;;;7.38;4.47;;;17.90;99.90;;;17.39;94.47;100391.72;4162974;28;20075;-75
2021/07/25 06:07:15;;;;;;;8.57;4.60;;;18.00;99.90;;;17.53;94.83;100401.34;4185322;28;20522;-74
2021/07/25 06:09:16;;;;;;;6.30;3.40;;;18.00;99.90;;;17.62;94.23;100395.59;4168732;28;20567;-74
2021/07/25 06:11:24;;;;;;;8.10;4.07;;;18.00;99.90;;;17.71;94.50;100409.53;4159768;28;20029;-74
2021/07/25 06:13:25;;;;;;;7.53;4.68;;;18.10;99.90;;;17.75;94.67;100409.91;4169817;28;20029;-75
2021/07/25 06:15:27;;;;;;;9.00;3.78;;;18.20;99.90;;;17.74;94.96;100397.63;4169621;28;20041;-75
2021/07/25 06:17:28;;;;;;;7.95;4.32;;;18.20;99.90;;;17.79;95.20;100397.81;4169810;28;20029;-75
2021/07/25 06:19:29;;;;;;;9.18;4.20;;;18.30;99.90;;;18.00;93.42;100405.53;4169717;28;20075;-75
2021/07/25 06:21:30;;;;;;;8.50;5.38;;;18.40;99.90;;;17.96;93.38;100417.66;4169601;28;20037;-75
2021/07/25 06:23:31;;;;;;;6.88;4.72;;;18.40;99.90;;;17.96;92.75;100409.63;4168413;28;20026;-75
2021/07/25 06:25:33;;;;;;;6.45;4.25;;;18.40;99.90;;;18.00;91.74;100403.69;4168603;28;20404;-74
2021/07/25 06:27:34;;;;;;;7.15;4.60;;;18.50;99.90;;;17.95;91.11;100411.47;4169611;28;20548;-75
2021/07/25 06:29:35;;;;;;;6.55;4.47;;;18.40;99.90;;;18.04;92.08;100425.44;4168292;28;20025;-74
2021/07/25 06:31:36;;;;;;;10.65;4.15;;;18.40;99.90;;;17.94;91.62;100419.72;4169263;28;20079;-75
2021/07/25 06:33:37;;;;;;;8.27;4.20;;;18.40;99.90;;;17.98;91.87;100424.41;4168380;28;20432;-75
2021/07/25 06:35:41;;;;;;;6.03;4.10;;;18.40;99.90;;;17.99;91.69;100417.22;4184950;28;20112;-74
2021/07/25 06:37:42;;;;;;;8.05;4.03;;;18.40;99.90;;;17.89;93.16;100422.22;4168293;28;20033;-75
2021/07/25 06:39:43;;;;;;;7.35;4.13;;;18.30;99.90;;;17.95;93.32;100413.34;4167866;28;20405;-75
2021/07/25 06:41:44;;;;;;;4.68;3.83;;;18.30;99.90;;;17.84;93.57;100412.16;4169483;28;20030;-74
2021/07/25 06:43:45;;;;;;;5.88;4.28;;;18.30;99.90;;;17.97;91.63;100430.78;4169081;28;20144;-75
2021/07/25 06:45:46;;;;;;;9.20;4.75;;;18.40;99.90;;;17.88;92.56;100437.41;4168531;28;20033;-76
2021/07/25 06:47:51;;;;;;;4.97;4.00;;;18.40;99.90;;;17.79;92.86;100432.50;4180940;28;20025;-75
2021/07/25 06:49:51;;;;;;;8.18;4.45;;;18.40;99.90;;;17.94;93.52;100441.88;4184481;28;20489;-75
2021/07/25 06:51:52;;;;;;;6.50;4.18;;;18.40;99.90;;;17.82;92.76;100437.41;4167864;28;20033;-75
2021/07/25 06:53:53;;;;;;;7.68;4.90;;;18.40;99.90;;;17.80;93.22;100450.16;4169097;28;20068;-75
2021/07/25 06:55:57;;;;;;;9.38;4.85;;;18.40;99.90;;;17.76;94.19;100432.91;4151671;28;20096;-75
2021/07/25 06:57:58;;;;;;;7.18;4.40;;;18.40;99.90;;;17.87;93.66;100440.25;4167486;28;20083;-75
2021/07/25 06:59:59;;;;;;;8.20;4.68;;;18.40;99.90;;;17.83;93.87;100441.72;4167866;28;20040;-75
2021/07/25 07:02:00;;;;;;;6.10;4.30;;;18.50;99.90;;;17.81;93.27;100444.59;4176977;28;20029;-75
2021/07/25 07:04:01;;;;;;;7.57;4.57;;;18.50;99.90;;;17.97;93.19;100451.31;4167719;28;20501;-75
2021/07/25 07:06:09;;;;;;;11.45;4.45;;;18.60;99.90;;;18.13;92.32;100446.31;4167598;28;20060;-75
2021/07/25 07:08:09;;;;;;;7.57;5.18;;;18.80;99.90;;;18.00;92.86;100451.72;4150975;28;20552;-75
2021/07/25 07:10:11;;;;;;;8.05;3.78;;;18.90;99.90;;;18.25;91.54;100446.47;4168890;28;20029;-75
2021/07/25 07:12:12;;;;;;;6.68;3.70;;;19.10;99.90;;;18.47;90.55;100447.78;4167492;28;20083;-74
2021/07/25 07:14:13;;;;;;;5.53;3.15;;;19.30;99.90;;;18.56;89.00;100451.88;4168912;28;20436;-74
2021/07/25 07:16:13;;;;;;;6.63;3.67;;;19.40;99.90;;;18.49;88.72;100455.59;4168752;28;20025;-74
2021/07/25 07:18:16;;;;;;;6.43;3.72;;;19.50;99.90;;;18.40;89.39;100455.00;4150969;28;20088;-73
2021/07/25 07:20:17;;;;;;;6.80;4.00;;;19.50;99.90;;;18.36;89.01;100455.66;4167572;28;20101;-72
2021/07/25 07:22:26;;;;;;;6.65;3.75;;;19.50;99.90;;;18.28;88.19;100458.59;4167360;28;20124;-72
2021/07/25 07:24:27;;;;;;;5.93;3.72;;;19.40;99.90;;;18.28;88.81;100455.91;4167518;28;20389;-72
2021/07/25 07:26:28;;;;;;;7.85;4.22;;;19.40;99.90;;;18.40;89.35;100462.22;4168638;28;20029;-73
2021/07/25 07:28:29;;;;;;;8.40;4.05;;;19.40;99.90;;;18.61;88.51;100462.72;4167107;28;20025;-73
2021/07/25 07:30:30;;;;;;;6.97;3.83;;;19.50;99.90;;;18.81;87.88;100461.78;4167150;28;20103;-74
2021/07/25 07:32:31;;;;;;;8.45;4.10;;;19.60;99.90;;;18.81;88.14;100453.78;4183941;28;20059;-74
2021/07/25 07:34:32;;;;;;;5.90;3.60;;;19.60;99.90;;;18.74;88.21;100453.81;4150767;28;20025;-72
2021/07/25 07:36:33;;;;;;;7.15;3.58;;;19.60;99.90;;;18.73;89.38;100458.34;4167075;28;20575;-71
2021/07/25 07:38:34;;;;;;;6.82;3.53;;;19.60;99.90;;;18.84;88.24;100450.69;4167057;28;20033;-75
2021/07/25 07:40:36;;;;;;;7.05;3.80;;;19.60;99.90;;;18.73;87.63;100461.00;4183891;28;20025;-76
2021/07/25 07:42:37;;;;;;;6.28;3.40;;;19.60;99.90;;;18.89;87.63;100466.88;4167167;28;20050;-75
2021/07/25 07:44:39;;;;;;;6.75;3.38;;;19.60;99.90;;;18.95;88.26;100455.31;4167035;28;20022;-75
2021/07/25 07:46:40;;;;;;;6.53;3.70;;;19.60;99.90;;;19.04;87.60;100464.69;4150434;28;20073;-76
2021/07/25 07:48:41;;;;;;;5.25;3.35;;;19.70;99.90;;;18.94;87.39;100454.50;4166994;28;20079;-74
2021/07/25 07:50:45;;;;;;;5.63;3.83;;;19.80;99.90;;;18.96;86.13;100465.81;4166789;28;20036;-74
2021/07/25 07:52:46;;;;;;;6.95;4.18;;;19.80;99.90;;;19.00;87.25;100460.81;4150497;28;20042;-75
2021/07/25 07:54:47;;;;;;;5.70;3.35;;;19.80;99.90;;;19.10;87.40;100458.47;4179175;28;20496;-75
2021/07/25 07:56:49;;;;;;;8.68;3.15;;;19.80;99.90;;;19.31;86.14;100466.94;4168123;28;20021;-75
2021/07/25 07:58:50;;;;;;;7.22;4.07;;;19.90;99.90;;;19.46;85.43;100480.00;4150468;28;20132;-75
2021/07/25 08:00:50;;;;;;;6.15;3.90;;;20.10;99.90;;;19.47;84.68;100475.47;4166912;28;20025;-75
2021/07/25 08:02:51;;;;;;;5.63;3.25;;;20.20;99.90;;;19.60;84.74;100461.94;4187830;28;20518;-75
2021/07/25 08:04:52;;;;;;;5.78;3.58;;;20.30;99.90;;;19.77;83.34;100458.47;4172672;28;20028;-75
2021/07/25 08:06:53;;;;;;;9.38;4.00;;;20.60;99.90;;;19.75;81.35;100452.53;4167183;28;20079;-75
2021/07/25 08:08:54;;;;;;;5.53;3.15;;;20.80;99.90;;;19.92;81.14;100458.13;4172405;28;20049;-75
2021/07/25 08:10:55;;;;;;;5.15;3.60;;;21.00;99.90;;;20.20;81.09;100461.06;4173844;28;20091;-75
2021/07/25 08:12:56;;;;;;;7.57;3.33;;;21.20;99.90;;;20.31;79.66;100446.09;4173761;28;20417;-75
2021/07/25 08:14:57;;;;;;;5.10;3.25;;;21.30;99.90;;;20.42;80.36;100450.72;4173304;28;20485;-75
2021/07/25 08:16:58;;;;;;;5.30;3.17;;;21.40;99.90;;;20.49;80.62;100450.63;4172545;28;20021;-75
2021/07/25 08:18:59;;;;;;;4.30;3.15;;;21.50;99.90;;;20.66;80.92;100441.72;4188405;28;20037;-76
2021/07/25 08:21:00;;;;;;;4.93;3.20;;;21.60;99.90;;;20.85;79.79;100456.66;4156113;28;20100;-74
2021/07/25 08:23:01;;;;;;;6.20;3.20;;;21.80;99.90;;;20.87;79.95;100451.91;4166361;28;20504;-75
2021/07/25 08:25:04;;;;;;;7.30;3.45;;;21.90;99.90;;;20.84;79.18;100452.38;4173492;28;20124;-75
2021/07/25 08:27:08;;;;;;;6.82;3.20;;;22.00;99.90;;;20.82;79.44;100464.34;4156049;28;20030;-75
2021/07/25 08:29:09;;;;;;;5.50;3.38;;;22.10;99.90;;;20.69;79.38;100467.25;4172521;28;20025;-75